Time;durP1;ratioP1;P1;durP2;ratioP2;P2;SDS_P1;SDS_P2;PMS_P1;PMS_P2;Temp;Humidity;BMP_temperature;BMP_pressure;BME280_temperature;BME280_humidity;BME280_pressure;Samples;Min_cycle;Max_cycle;Signal;HPM_P1;HPM_P2
2023/01/20 00:01:24;;;;;;;53.00;24.57;;;;;;;;;;5020643;28;20213;-68
2023/01/20 00:03:54;;;;;;;51.83;25.80;;;;;;;;;;5040230;28;20958;-68
2023/01/20 00:06:21;;;;;;;50.27;24.40;;;;;;;;;;5036891;28;20625;-68
2023/01/20 00:08:54;;;;;;;50.93;24.57;;;;;;;;;;5024132;28;20190;-68
2023/01/20 00:11:20;;;;;;;59.57;25.77;;;;;;;;;;5026327;28;20240;-68
2023/01/20 00:13:46;;;;;;;54.83;24.27;;;;;;;;;;5027225;28;20680;-68
2023/01/20 00:16:12;;;;;;;54.40;26.00;;;;;;;;;;5031745;28;20185;-68
2023/01/20 00:18:38;;;;;;;47.90;24.13;;;;;;;;;;5035326;28;20193;-69
2023/01/20 00:21:05;;;;;;;50.27;23.77;;;;;;;;;;5030604;28;20372;-69
2023/01/20 00:23:31;;;;;;;51.27;24.73;;;;;;;;;;5028712;28;20194;-68
2023/01/20 00:25:56;;;;;;;52.60;25.00;;;;;;;;;;5027563;28;20560;-68
2023/01/20 00:28:21;;;;;;;54.00;25.43;;;;;;;;;;5024684;28;20217;-68
2023/01/20 00:30:47;;;;;;;48.30;24.37;;;;;;;;;;5031162;28;20198;-68
2023/01/20 00:33:12;;;;;;;51.13;24.93;;;;;;;;;;5037300;28;20204;-68
2023/01/20 00:35:37;;;;;;;53.70;24.50;;;;;;;;;;5030634;28;20201;-68
2023/01/20 00:38:03;;;;;;;49.37;24.37;;;;;;;;;;5028827;28;20271;-68
2023/01/20 00:40:28;;;;;;;53.10;25.03;;;;;;;;;;5014365;28;20505;-68
2023/01/20 00:42:54;;;;;;;53.67;26.17;;;;;;;;;;5026574;28;20213;-68
2023/01/20 00:45:19;;;;;;;49.73;24.00;;;;;;;;;;5031433;28;20197;-68
2023/01/20 00:47:44;;;;;;;51.50;24.53;;;;;;;;;;5012024;28;20226;-68
2023/01/20 00:50:10;;;;;;;50.93;24.60;;;;;;;;;;5029259;28;20250;-68
2023/01/20 00:52:35;;;;;;;45.93;23.03;;;;;;;;;;5021731;28;20205;-68
2023/01/20 00:55:01;;;;;;;48.50;23.53;;;;;;;;;;5029593;28;20181;-68
2023/01/20 00:57:26;;;;;;;45.67;22.47;;;;;;;;;;5031366;28;20194;-68
2023/01/20 00:59:51;;;;;;;43.93;21.73;;;;;;;;;;5024680;28;20226;-69
2023/01/20 01:02:17;;;;;;;45.00;21.97;;;;;;;;;;5027013;28;20241;-68
2023/01/20 01:04:42;;;;;;;40.57;20.73;;;;;;;;;;5015107;28;20197;-68
2023/01/20 01:07:08;;;;;;;36.90;18.97;;;;;;;;;;5033310;28;20206;-68
2023/01/20 01:09:33;;;;;;;35.37;17.43;;;;;;;;;;5026528;28;20251;-68
2023/01/20 01:11:59;;;;;;;37.73;19.03;;;;;;;;;;5028912;28;20185;-68
2023/01/20 01:14:24;;;;;;;37.83;18.50;;;;;;;;;;5037514;28;20189;-68
2023/01/20 01:16:50;;;;;;;28.90;16.00;;;;;;;;;;5028305;28;20260;-68
2023/01/20 01:19:17;;;;;;;31.83;16.37;;;;;;;;;;5025268;28;20235;-68
2023/01/20 01:21:42;;;;;;;27.93;15.30;;;;;;;;;;5026826;28;20194;-68
2023/01/20 01:24:08;;;;;;;28.47;15.30;;;;;;;;;;5024801;28;20656;-68
2023/01/20 01:26:33;;;;;;;29.97;14.80;;;;;;;;;;5032363;28;20218;-68
2023/01/20 01:28:59;;;;;;;26.37;13.40;;;;;;;;;;5031403;28;20679;-68
2023/01/20 01:31:24;;;;;;;25.17;13.07;;;;;;;;;;5025686;28;20268;-68
2023/01/20 01:33:49;;;;;;;25.50;14.23;;;;;;;;;;5023292;28;20191;-68
2023/01/20 01:36:16;;;;;;;31.70;15.60;;;;;;;;;;5022438;28;20240;-68
2023/01/20 01:38:42;;;;;;;28.43;15.17;;;;;;;;;;5022433;28;20201;-68
2023/01/20 01:41:11;;;;;;;28.97;14.90;;;;;;;;;;5026448;28;20649;-68
2023/01/20 01:43:38;;;;;;;26.03;13.57;;;;;;;;;;5023135;28;20198;-68
2023/01/20 01:46:04;;;;;;;22.80;12.37;;;;;;;;;;5028897;28;20202;-67
2023/01/20 01:48:43;;;;;;;25.10;12.40;;;;;;;;;;5024701;28;20246;-68
2023/01/20 01:51:16;;;;;;;24.17;12.07;;;;;;;;;;5017393;28;20193;-68
2023/01/20 01:53:47;;;;;;;24.83;11.87;;;;;;;;;;5022011;28;20293;-68
2023/01/20 01:56:14;;;;;;;25.37;12.17;;;;;;;;;;5028388;28;20182;-68
2023/01/20 01:58:45;;;;;;;23.93;11.70;;;;;;;;;;5028181;28;20194;-69
2023/01/20 02:01:10;;;;;;;27.33;12.27;;;;;;;;;;5036946;28;20218;-68
2023/01/20 02:04:03;;;;;;;24.57;12.80;;;;;;;;;;5027155;28;20202;-68
2023/01/20 02:06:32;;;;;;;24.93;13.10;;;;;;;;;;5030236;28;20898;-68
2023/01/20 02:09:00;;;;;;;28.57;13.67;;;;;;;;;;5036641;28;20250;-68
2023/01/20 02:11:26;;;;;;;24.27;14.00;;;;;;;;;;5037292;28;20271;-68
2023/01/20 02:13:52;;;;;;;29.20;14.93;;;;;;;;;;5025969;28;20195;-68
2023/01/20 02:16:37;;;;;;;25.93;14.33;;;;;;;;;;5033776;28;20185;-68
2023/01/20 02:19:23;;;;;;;24.33;12.63;;;;;;;;;;5026829;28;20186;-68
2023/01/20 02:22:10;;;;;;;25.20;12.93;;;;;;;;;;5032039;28;20186;-68
2023/01/20 02:25:08;;;;;;;22.77;11.83;;;;;;;;;;5030344;28;20233;-68
2023/01/20 02:27:48;;;;;;;21.20;11.20;;;;;;;;;;5028698;28;20237;-68
2023/01/20 02:30:37;;;;;;;24.40;12.87;;;;;;;;;;5030056;28;20617;-68
2023/01/20 02:33:12;;;;;;;21.77;11.43;;;;;;;;;;5024988;28;20594;-68
2023/01/20 02:35:55;;;;;;;23.90;12.33;;;;;;;;;;5030717;28;20186;-69
2023/01/20 02:38:43;;;;;;;19.93;11.73;;;;;;;;;;5030421;28;20190;-68
2023/01/20 02:41:46;;;;;;;23.73;12.30;;;;;;;;;;5031066;28;20269;-68
2023/01/20 02:44:17;;;;;;;22.33;11.53;;;;;;;;;;5019759;28;20272;-68
2023/01/20 02:46:55;;;;;;;18.73;10.43;;;;;;;;;;5028447;28;20214;-68
2023/01/20 02:49:27;;;;;;;19.43;10.93;;;;;;;;;;5023339;28;20183;-68
2023/01/20 02:52:04;;;;;;;18.73;10.87;;;;;;;;;;5020982;28;20213;-68
2023/01/20 02:54:34;;;;;;;19.07;10.73;;;;;;;;;;5025492;28;20289;-68
2023/01/20 02:57:02;;;;;;;19.83;11.20;;;;;;;;;;5023105;28;20240;-68
2023/01/20 02:59:33;;;;;;;17.07;10.37;;;;;;;;;;5020455;28;20628;-68
2023/01/20 03:02:07;;;;;;;17.07;10.13;;;;;;;;;;5029985;28;20268;-70
2023/01/20 03:04:46;;;;;;;16.90;9.03;;;;;;;;;;5025548;28;20220;-68
2023/01/20 03:07:13;;;;;;;16.43;10.13;;;;;;;;;;5028851;28;20673;-69
2023/01/20 03:09:46;;;;;;;18.67;10.17;;;;;;;;;;5024701;28;20186;-69
2023/01/20 03:12:22;;;;;;;18.77;10.40;;;;;;;;;;5026233;28;20194;-68
2023/01/20 03:14:52;;;;;;;18.07;10.63;;;;;;;;;;5027246;28;20193;-68
2023/01/20 03:17:19;;;;;;;19.13;10.17;;;;;;;;;;5039640;28;20650;-68
2023/01/20 03:19:44;;;;;;;17.97;10.40;;;;;;;;;;5031368;28;20178;-68
2023/01/20 03:22:10;;;;;;;17.30;10.53;;;;;;;;;;5017186;28;20235;-68
2023/01/20 03:24:37;;;;;;;19.30;10.47;;;;;;;;;;5022227;28;20230;-69
2023/01/20 03:27:03;;;;;;;17.40;10.83;;;;;;;;;;5028568;28;20677;-68
2023/01/20 03:29:29;;;;;;;18.63;10.23;;;;;;;;;;5028672;28;20194;-68
2023/01/20 03:31:57;;;;;;;18.63;11.03;;;;;;;;;;5033320;28;20190;-68
2023/01/20 03:34:25;;;;;;;20.80;11.60;;;;;;;;;;5026894;28;20182;-68
2023/01/20 03:36:52;;;;;;;18.67;10.83;;;;;;;;;;5000084;28;20194;-68
2023/01/20 03:39:19;;;;;;;21.47;11.60;;;;;;;;;;5038437;28;20664;-68
2023/01/20 03:42:13;;;;;;;23.37;11.83;;;;;;;;;;5027741;28;20197;-68
2023/01/20 03:44:47;;;;;;;23.40;12.47;;;;;;;;;;5023780;28;20186;-68
2023/01/20 03:47:24;;;;;;;21.33;11.77;;;;;;;;;;5021883;28;20202;-68
2023/01/20 03:50:08;;;;;;;23.80;12.77;;;;;;;;;;5025304;28;20194;-68
2023/01/20 03:52:40;;;;;;;22.30;11.83;;;;;;;;;;5025344;28;20201;-68
2023/01/20 03:55:16;;;;;;;23.43;12.63;;;;;;;;;;5027833;28;21723;-68
2023/01/20 03:57:50;;;;;;;23.97;13.47;;;;;;;;;;5027466;28;20186;-68
2023/01/20 04:00:19;;;;;;;25.30;13.67;;;;;;;;;;5025605;28;20720;-68
2023/01/20 04:02:44;;;;;;;25.53;13.83;;;;;;;;;;5020771;28;20182;-68
2023/01/20 04:05:10;;;;;;;30.40;15.73;;;;;;;;;;5026761;28;20276;-68
2023/01/20 04:07:39;;;;;;;30.87;15.93;;;;;;;;;;5027649;28;20657;-68
2023/01/20 04:10:11;;;;;;;26.53;14.77;;;;;;;;;;5027128;28;20538;-68
2023/01/20 04:12:36;;;;;;;31.97;16.47;;;;;;;;;;5026262;28;20653;-68
2023/01/20 04:15:02;;;;;;;28.77;16.10;;;;;;;;;;5025254;28;20190;-68
2023/01/20 04:17:28;;;;;;;29.87;15.97;;;;;;;;;;5027327;28;20174;-68
2023/01/20 04:19:54;;;;;;;31.83;15.90;;;;;;;;;;5026720;28;20300;-68
2023/01/20 04:22:30;;;;;;;29.60;15.67;;;;;;;;;;5025246;28;20195;-69
2023/01/20 04:25:07;;;;;;;33.23;16.70;;;;;;;;;;5022241;28;20222;-68
2023/01/20 04:27:32;;;;;;;33.33;17.77;;;;;;;;;;5019996;28;20210;-68
2023/01/20 04:29:57;;;;;;;32.17;16.90;;;;;;;;;;5014689;28;20837;-68
2023/01/20 04:32:23;;;;;;;32.30;16.57;;;;;;;;;;5022395;28;20186;-68
2023/01/20 04:34:52;;;;;;;34.53;18.47;;;;;;;;;;5026785;28;20190;-68
2023/01/20 04:37:17;;;;;;;40.20;19.17;;;;;;;;;;5042767;28;20189;-68
2023/01/20 04:39:43;;;;;;;38.73;19.93;;;;;;;;;;5036251;28;20185;-69
2023/01/20 04:42:11;;;;;;;38.20;19.90;;;;;;;;;;5018534;28;20726;-69
2023/01/20 04:44:37;;;;;;;35.90;18.07;;;;;;;;;;5023402;28;20194;-68
2023/01/20 04:47:02;;;;;;;36.03;18.47;;;;;;;;;;5028350;28;20221;-68
2023/01/20 04:49:27;;;;;;;38.97;19.63;;;;;;;;;;5024566;28;20194;-68
2023/01/20 04:51:53;;;;;;;39.73;20.73;;;;;;;;;;5025612;28;20293;-68
2023/01/20 04:54:19;;;;;;;44.03;19.90;;;;;;;;;;5033160;28;20251;-68
2023/01/20 04:56:44;;;;;;;45.93;21.30;;;;;;;;;;5023959;28;20669;-68
2023/01/20 04:59:09;;;;;;;43.83;20.80;;;;;;;;;;5025387;28;20233;-68
2023/01/20 05:01:35;;;;;;;45.60;21.37;;;;;;;;;;5020961;28;20220;-69
2023/01/20 05:04:00;;;;;;;42.73;20.40;;;;;;;;;;5029496;28;20198;-68
2023/01/20 05:06:26;;;;;;;43.80;21.00;;;;;;;;;;5029910;28;20206;-68
2023/01/20 05:08:51;;;;;;;41.13;21.30;;;;;;;;;;5025364;28;20198;-68
2023/01/20 05:11:16;;;;;;;42.80;20.83;;;;;;;;;;5028136;28;20219;-68
2023/01/20 05:13:42;;;;;;;43.40;21.20;;;;;;;;;;5033847;28;20194;-68
2023/01/20 05:16:09;;;;;;;47.33;22.23;;;;;;;;;;5030797;28;20178;-68
2023/01/20 05:18:35;;;;;;;41.57;20.07;;;;;;;;;;5033983;28;20190;-68
2023/01/20 05:21:02;;;;;;;47.20;22.03;;;;;;;;;;5026410;28;20190;-68
2023/01/20 05:23:28;;;;;;;44.37;20.77;;;;;;;;;;5029482;28;20540;-68
2023/01/20 05:25:53;;;;;;;43.33;21.90;;;;;;;;;;5045441;28;20229;-68
2023/01/20 05:28:19;;;;;;;47.50;22.60;;;;;;;;;;5033396;28;20274;-68
2023/01/20 05:30:44;;;;;;;40.67;20.67;;;;;;;;;;5034694;28;20235;-68
2023/01/20 05:33:10;;;;;;;40.53;20.20;;;;;;;;;;5040730;28;20198;-68
2023/01/20 05:35:39;;;;;;;44.23;20.90;;;;;;;;;;5041056;28;20182;-68
2023/01/20 05:38:04;;;;;;;41.77;20.77;;;;;;;;;;5038832;28;20612;-68
2023/01/20 05:40:29;;;;;;;39.97;20.07;;;;;;;;;;5030439;28;20321;-68
2023/01/20 05:42:59;;;;;;;43.00;20.43;;;;;;;;;;5041225;28;20697;-68
2023/01/20 05:45:24;;;;;;;39.53;18.17;;;;;;;;;;5040834;28;20187;-68
2023/01/20 05:47:57;;;;;;;39.53;19.50;;;;;;;;;;5032305;28;20206;-68
2023/01/20 05:50:23;;;;;;;37.63;17.50;;;;;;;;;;5019708;28;20202;-68
2023/01/20 05:52:48;;;;;;;39.03;18.63;;;;;;;;;;5036900;28;20194;-68
2023/01/20 05:55:14;;;;;;;33.27;17.53;;;;;;;;;;5043270;28;20220;-68
2023/01/20 05:57:39;;;;;;;37.37;18.77;;;;;;;;;;5045062;28;20191;-68
2023/01/20 06:00:05;;;;;;;37.33;18.17;;;;;;;;;;5037472;28;20213;-68
2023/01/20 06:02:31;;;;;;;37.80;18.73;;;;;;;;;;5038173;28;20198;-68
2023/01/20 06:05:00;;;;;;;38.17;19.00;;;;;;;;;;5036657;28;20608;-68
2023/01/20 06:07:29;;;;;;;35.17;17.47;;;;;;;;;;5046007;28;20206;-68
2023/01/20 06:09:55;;;;;;;43.33;18.67;;;;;;;;;;5039749;28;20754;-68
2023/01/20 06:12:21;;;;;;;34.70;18.43;;;;;;;;;;5037105;28;20625;-68
2023/01/20 06:14:46;;;;;;;38.43;19.10;;;;;;;;;;5036145;28;20892;-68
2023/01/20 06:17:11;;;;;;;36.70;17.83;;;;;;;;;;5031338;28;20190;-68
2023/01/20 06:19:37;;;;;;;35.97;18.03;;;;;;;;;;5032863;28;20187;-68
2023/01/20 06:22:02;;;;;;;42.13;19.80;;;;;;;;;;5030607;28;20609;-68
2023/01/20 06:24:28;;;;;;;31.60;17.33;;;;;;;;;;5035086;28;20225;-68
2023/01/20 06:26:53;;;;;;;37.43;18.70;;;;;;;;;;5039956;28;20697;-68
2023/01/20 06:29:19;;;;;;;33.60;17.83;;;;;;;;;;5027991;28;20193;-68
2023/01/20 06:31:44;;;;;;;38.97;18.57;;;;;;;;;;5026965;28;20235;-68
2023/01/20 06:34:11;;;;;;;42.13;19.83;;;;;;;;;;5026156;28;20205;-68
2023/01/20 06:36:36;;;;;;;38.67;18.50;;;;;;;;;;5030396;28;20193;-68
2023/01/20 06:39:01;;;;;;;39.70;19.60;;;;;;;;;;5035429;28;20190;-68
2023/01/20 06:41:27;;;;;;;44.27;20.23;;;;;;;;;;5037601;28;20549;-68
2023/01/20 06:43:52;;;;;;;43.33;18.40;;;;;;;;;;5025254;28;20186;-68
2023/01/20 06:46:18;;;;;;;38.10;18.97;;;;;;;;;;5036833;28;20248;-68
2023/01/20 06:48:44;;;;;;;42.93;19.70;;;;;;;;;;5044795;28;20221;-69
2023/01/20 06:51:18;;;;;;;38.07;19.43;;;;;;;;;;5040241;28;20209;-68
2023/01/20 06:53:44;;;;;;;44.83;20.07;;;;;;;;;;5042260;28;20201;-68
2023/01/20 06:56:12;;;;;;;36.97;18.83;;;;;;;;;;5032645;28;20182;-68
2023/01/20 06:58:38;;;;;;;38.37;19.17;;;;;;;;;;5039196;28;20198;-68
2023/01/20 07:01:17;;;;;;;43.23;19.87;;;;;;;;;;5022219;28;20212;-67
2023/01/20 07:03:43;;;;;;;42.23;20.83;;;;;;;;;;5024780;28;20549;-68
2023/01/20 07:06:30;;;;;;;49.40;21.03;;;;;;;;;;5037822;28;20277;-67
2023/01/20 07:08:56;;;;;;;46.03;20.33;;;;;;;;;;5026794;28;20186;-68
2023/01/20 07:11:21;;;;;;;46.40;20.67;;;;;;;;;;5024028;28;20195;-68
2023/01/20 07:13:47;;;;;;;47.63;22.20;;;;;;;;;;5026906;28;20210;-68
2023/01/20 07:16:13;;;;;;;53.13;22.13;;;;;;;;;;5034412;28;20547;-70
2023/01/20 07:18:38;;;;;;;47.83;21.40;;;;;;;;;;5038812;28;20186;-68
2023/01/20 07:21:04;;;;;;;49.60;21.33;;;;;;;;;;5037636;28;20210;-68
2023/01/20 07:23:32;;;;;;;47.43;21.87;;;;;;;;;;5031319;28;20220;-68
2023/01/20 07:26:09;;;;;;;53.97;22.03;;;;;;;;;;5032278;28;20233;-68
2023/01/20 07:28:35;;;;;;;53.27;20.10;;;;;;;;;;5025870;28;20239;-68
2023/01/20 07:31:12;;;;;;;45.57;20.23;;;;;;;;;;5028506;28;20191;-68
2023/01/20 07:33:38;;;;;;;47.23;19.47;;;;;;;;;;5028690;28;20509;-68
2023/01/20 07:36:05;;;;;;;47.33;21.63;;;;;;;;;;5038299;28;20204;-68
2023/01/20 07:38:31;;;;;;;44.13;20.67;;;;;;;;;;5032963;28;20263;-68
2023/01/20 07:41:02;;;;;;;49.33;21.43;;;;;;;;;;5029674;28;20227;-68
2023/01/20 07:43:28;;;;;;;52.80;22.03;;;;;;;;;;5033763;28;20185;-68
2023/01/20 07:45:58;;;;;;;50.90;21.33;;;;;;;;;;5033400;28;20711;-68
2023/01/20 07:48:24;;;;;;;48.80;21.40;;;;;;;;;;5037478;28;20202;-68
2023/01/20 07:51:01;;;;;;;49.03;22.03;;;;;;;;;;5037762;28;20202;-68
2023/01/20 07:53:39;;;;;;;55.83;22.03;;;;;;;;;;5036944;28;20630;-68
2023/01/20 07:56:10;;;;;;;50.40;19.97;;;;;;;;;;5034637;28;20188;-68
2023/01/20 07:58:36;;;;;;;51.87;21.40;;;;;;;;;;5029989;28;20558;-68
2023/01/20 08:01:14;;;;;;;46.67;22.07;;;;;;;;;;5032318;28;20206;-68
2023/01/20 08:03:39;;;;;;;50.43;21.43;;;;;;;;;;5038286;28;20197;-67
2023/01/20 08:06:07;;;;;;;48.13;19.27;;;;;;;;;;5032638;28;20225;-68
2023/01/20 08:08:33;;;;;;;51.67;21.67;;;;;;;;;;5031588;28;20201;-69
2023/01/20 08:11:00;;;;;;;51.07;21.43;;;;;;;;;;5031385;28;20198;-68
2023/01/20 08:13:26;;;;;;;45.70;19.67;;;;;;;;;;5032296;28;20178;-69
2023/01/20 08:15:51;;;;;;;46.83;19.53;;;;;;;;;;5037836;28;20186;-68
2023/01/20 08:18:17;;;;;;;45.80;20.17;;;;;;;;;;5037028;28;20178;-68
2023/01/20 08:20:42;;;;;;;43.30;19.70;;;;;;;;;;5022849;28;20622;-69
2023/01/20 08:23:07;;;;;;;45.90;19.37;;;;;;;;;;5028280;28;21689;-68
2023/01/20 08:25:33;;;;;;;42.07;17.93;;;;;;;;;;5041529;28;20308;-68
2023/01/20 08:27:58;;;;;;;46.37;19.83;;;;;;;;;;5042181;28;20284;-68
2023/01/20 08:30:24;;;;;;;46.63;19.27;;;;;;;;;;5035594;28;20659;-68
2023/01/20 08:32:49;;;;;;;41.20;18.03;;;;;;;;;;5039405;28;20235;-68
2023/01/20 08:35:14;;;;;;;43.20;19.60;;;;;;;;;;5038209;28;20673;-69
2023/01/20 08:37:40;;;;;;;44.10;18.80;;;;;;;;;;5046919;28;20185;-69
2023/01/20 08:40:08;;;;;;;42.80;18.43;;;;;;;;;;5045106;28;20641;-68
2023/01/20 08:42:34;;;;;;;42.47;18.53;;;;;;;;;;5047893;28;20243;-68
2023/01/20 08:45:00;;;;;;;48.00;19.50;;;;;;;;;;5042530;28;20603;-68
2023/01/20 08:47:25;;;;;;;48.80;20.03;;;;;;;;;;5039725;28;20210;-68
2023/01/20 08:49:52;;;;;;;48.90;20.60;;;;;;;;;;5040754;28;20188;-66
2023/01/20 08:52:18;;;;;;;46.37;18.87;;;;;;;;;;5043750;28;20248;-68
2023/01/20 08:54:44;;;;;;;40.77;19.17;;;;;;;;;;5041432;28;20243;-68
2023/01/20 08:57:09;;;;;;;43.70;19.70;;;;;;;;;;5035652;28;20182;-68
2023/01/20 08:59:35;;;;;;;47.43;19.77;;;;;;;;;;5044794;28;20200;-68
2023/01/20 09:02:00;;;;;;;43.90;18.27;;;;;;;;;;5042609;28;20653;-68
2023/01/20 09:04:25;;;;;;;48.47;20.90;;;;;;;;;;5045510;28;20190;-68
2023/01/20 09:06:51;;;;;;;44.63;19.03;;;;;;;;;;5044060;28;20201;-68
2023/01/20 09:09:19;;;;;;;44.47;18.83;;;;;;;;;;5047269;28;20192;-68
2023/01/20 09:11:49;;;;;;;41.47;19.20;;;;;;;;;;5042365;28;20185;-68
2023/01/20 09:14:15;;;;;;;46.67;19.83;;;;;;;;;;5046480;28;20606;-68
2023/01/20 09:16:40;;;;;;;44.60;19.03;;;;;;;;;;5032667;28;20599;-68
2023/01/20 09:19:06;;;;;;;43.83;19.43;;;;;;;;;;5045159;28;20270;-68
2023/01/20 09:21:32;;;;;;;46.40;19.57;;;;;;;;;;5041623;28;20197;-68
2023/01/20 09:23:57;;;;;;;42.17;19.03;;;;;;;;;;5051150;28;20381;-68
2023/01/20 09:26:22;;;;;;;45.80;20.57;;;;;;;;;;5045509;28;20239;-68
2023/01/20 09:28:48;;;;;;;47.53;18.90;;;;;;;;;;5046564;28;20657;-67
2023/01/20 09:31:13;;;;;;;47.13;19.73;;;;;;;;;;5048980;28;20192;-68
2023/01/20 09:33:40;;;;;;;45.07;20.73;;;;;;;;;;5043758;28;20186;-69
2023/01/20 09:36:08;;;;;;;42.30;19.73;;;;;;;;;;5044161;28;20185;-67
2023/01/20 09:44:20;;;;;;;42.63;19.07;;;;;;;;;;5022115;28;20205;-67
2023/01/20 09:47:20;;;;;;;43.87;19.73;;;;;;;;;;5032758;28;20248;-68
2023/01/20 09:53:03;;;;;;;41.30;18.27;;;;;;;;;;5042086;28;20627;-67
2023/01/20 09:55:49;;;;;;;40.97;18.30;;;;;;;;;;5046793;28;20177;-67
2023/01/20 09:58:36;;;;;;;41.10;18.67;;;;;;;;;;5040630;28;20657;-68
2023/01/20 10:01:17;;;;;;;39.40;18.03;;;;;;;;;;5043968;28;20213;-68
2023/01/20 10:03:48;;;;;;;41.27;19.00;;;;;;;;;;5038774;28;20193;-68
2023/01/20 10:06:39;;;;;;;39.77;18.20;;;;;;;;;;5042143;28;20229;-68
2023/01/20 10:09:38;;;;;;;37.90;18.17;;;;;;;;;;5050791;28;20533;-68
2023/01/20 10:12:16;;;;;;;41.60;18.50;;;;;;;;;;5038735;28;20570;-68
2023/01/20 10:14:53;;;;;;;43.27;18.50;;;;;;;;;;5044828;28;20224;-69
2023/01/20 10:17:28;;;;;;;34.90;17.87;;;;;;;;;;5043548;28;20174;-67
2023/01/20 10:19:55;;;;;;;39.13;18.83;;;;;;;;;;5041932;28;20213;-68
2023/01/20 10:22:32;;;;;;;39.67;18.37;;;;;;;;;;5042171;28;20190;-68
2023/01/20 10:25:23;;;;;;;44.20;19.43;;;;;;;;;;5047318;28;20593;-68
2023/01/20 10:27:53;;;;;;;38.53;19.17;;;;;;;;;;5041495;28;20229;-67
2023/01/20 10:30:22;;;;;;;39.70;18.07;;;;;;;;;;5042705;28;20546;-68
2023/01/20 10:32:56;;;;;;;41.20;18.93;;;;;;;;;;5047165;28;20190;-68
2023/01/20 10:35:27;;;;;;;45.40;21.03;;;;;;;;;;5045366;28;20210;-68
2023/01/20 10:37:54;;;;;;;35.47;18.27;;;;;;;;;;5043291;28;20196;-68
2023/01/20 10:40:22;;;;;;;39.10;19.63;;;;;;;;;;5042052;28;20186;-69
2023/01/20 10:42:54;;;;;;;39.63;19.33;;;;;;;;;;5045689;28;20259;-68
2023/01/20 10:45:39;;;;;;;38.83;18.50;;;;;;;;;;5046139;28;20700;-68
2023/01/20 10:48:19;;;;;;;39.07;19.47;;;;;;;;;;5045873;28;20209;-68
2023/01/20 10:50:47;;;;;;;44.60;19.27;;;;;;;;;;5046111;28;20181;-68
2023/01/20 10:53:40;;;;;;;37.07;18.23;;;;;;;;;;5048221;28;20177;-68
2023/01/20 10:56:18;;;;;;;38.57;17.53;;;;;;;;;;5045746;28;20582;-68
2023/01/20 10:58:45;;;;;;;40.70;18.03;;;;;;;;;;5040713;28;20193;-68
2023/01/20 11:01:15;;;;;;;40.10;18.17;;;;;;;;;;5042556;28;20212;-67
2023/01/20 11:03:43;;;;;;;41.93;19.13;;;;;;;;;;5045770;28;20181;-69
2023/01/20 11:06:19;;;;;;;43.07;19.47;;;;;;;;;;5047416;28;20214;-68
2023/01/20 11:08:45;;;;;;;39.27;18.47;;;;;;;;;;5041044;28;20199;-68
2023/01/20 11:11:17;;;;;;;39.60;18.43;;;;;;;;;;5042753;28;20723;-67
2023/01/20 11:13:42;;;;;;;41.77;19.23;;;;;;;;;;5045026;28;20197;-68
2023/01/20 11:16:28;;;;;;;41.93;18.73;;;;;;;;;;5043208;28;20547;-68
2023/01/20 11:19:07;;;;;;;40.07;18.37;;;;;;;;;;5034103;28;20315;-68
2023/01/20 11:21:35;;;;;;;40.90;18.57;;;;;;;;;;5038788;28;20646;-68
2023/01/20 11:24:03;;;;;;;42.13;19.17;;;;;;;;;;5032645;28;20426;-68
2023/01/20 11:26:34;;;;;;;40.63;19.33;;;;;;;;;;5028368;28;20230;-68
2023/01/20 11:29:09;;;;;;;43.17;20.00;;;;;;;;;;5038819;28;20188;-68
2023/01/20 11:31:42;;;;;;;43.53;18.83;;;;;;;;;;5016013;28;20197;-69
2023/01/20 11:34:26;;;;;;;44.63;20.47;;;;;;;;;;5042887;28;20292;-68
2023/01/20 11:37:03;;;;;;;41.17;19.33;;;;;;;;;;5042960;28;20331;-68
2023/01/20 11:39:54;;;;;;;41.30;18.63;;;;;;;;;;5045481;28;20185;-68
2023/01/20 11:42:25;;;;;;;43.50;18.63;;;;;;;;;;5039611;28;20186;-68
2023/01/20 11:45:01;;;;;;;41.17;19.07;;;;;;;;;;5045940;28;20232;-68
2023/01/20 11:47:28;;;;;;;42.73;20.27;;;;;;;;;;5045237;28;20213;-68
2023/01/20 11:50:02;;;;;;;50.70;19.80;;;;;;;;;;5047958;28;20177;-67
2023/01/20 11:52:28;;;;;;;43.80;18.67;;;;;;;;;;5046818;28;20647;-68
2023/01/20 11:55:06;;;;;;;42.73;19.37;;;;;;;;;;5045695;28;20200;-68
2023/01/20 11:57:32;;;;;;;38.63;18.17;;;;;;;;;;5035062;28;20193;-68
2023/01/20 11:59:57;;;;;;;42.17;18.83;;;;;;;;;;5043961;28;20202;-68
2023/01/20 12:02:23;;;;;;;46.17;19.13;;;;;;;;;;5043406;28;20189;-68
2023/01/20 12:05:00;;;;;;;40.33;19.57;;;;;;;;;;5038487;28;20201;-68
2023/01/20 12:07:34;;;;;;;44.27;20.07;;;;;;;;;;5037337;28;20209;-68
2023/01/20 12:10:10;;;;;;;42.20;19.03;;;;;;;;;;5042804;28;20185;-69
2023/01/20 12:12:40;;;;;;;46.77;19.93;;;;;;;;;;5037084;28;20193;-69
2023/01/20 12:15:15;;;;;;;40.60;19.20;;;;;;;;;;5038734;28;20217;-69
2023/01/20 12:17:44;;;;;;;37.40;18.60;;;;;;;;;;5036084;28;20219;-69
2023/01/20 12:20:12;;;;;;;37.73;18.20;;;;;;;;;;5044288;28;20502;-69
2023/01/20 12:22:46;;;;;;;38.67;18.13;;;;;;;;;;5042703;28;20267;-69
2023/01/20 12:25:25;;;;;;;39.47;18.67;;;;;;;;;;5035870;28;20220;-69
2023/01/20 12:28:04;;;;;;;42.60;18.63;;;;;;;;;;5035997;28;20585;-69
2023/01/20 12:30:39;;;;;;;43.20;19.80;;;;;;;;;;5036993;28;20194;-69
2023/01/20 12:33:15;;;;;;;41.40;20.40;;;;;;;;;;5032322;28;20208;-69
2023/01/20 12:35:55;;;;;;;43.90;18.57;;;;;;;;;;5037688;28;20265;-69
2023/01/20 12:38:21;;;;;;;45.37;21.20;;;;;;;;;;5032055;28;20185;-69
2023/01/20 12:40:49;;;;;;;45.37;21.23;;;;;;;;;;5032651;28;20186;-69
2023/01/20 12:43:25;;;;;;;43.20;20.70;;;;;;;;;;5046396;28;20181;-69
2023/01/20 12:46:18;;;;;;;48.50;21.33;;;;;;;;;;5040154;28;20185;-69
2023/01/20 12:49:19;;;;;;;43.37;21.30;;;;;;;;;;5044345;28;20209;-69
2023/01/20 12:52:07;;;;;;;47.13;21.80;;;;;;;;;;5043085;28;20186;-69
2023/01/20 12:54:45;;;;;;;44.00;20.50;;;;;;;;;;5027360;28;20553;-69
2023/01/20 12:57:16;;;;;;;47.23;21.67;;;;;;;;;;5034737;28;20194;-69
2023/01/20 12:59:55;;;;;;;46.63;21.83;;;;;;;;;;5040147;28;20688;-69
2023/01/20 13:03:00;;;;;;;48.33;22.53;;;;;;;;;;5035566;28;20186;-69
2023/01/20 13:06:18;;;;;;;43.30;20.40;;;;;;;;;;5020900;28;20273;-69
2023/01/20 13:08:49;;;;;;;40.40;20.97;;;;;;;;;;5024911;28;20212;-69
2023/01/20 13:11:38;;;;;;;43.63;20.50;;;;;;;;;;5034074;28;20206;-70
2023/01/20 13:14:26;;;;;;;40.70;20.23;;;;;;;;;;5020210;28;20210;-69
2023/01/20 13:17:28;;;;;;;37.93;19.50;;;;;;;;;;5019250;28;20201;-68
2023/01/20 13:19:58;;;;;;;36.67;17.77;;;;;;;;;;5042190;28;20191;-69
2023/01/20 13:22:24;;;;;;;37.43;19.50;;;;;;;;;;4339833;28;10000729;-69
2023/01/20 13:24:55;;;;;;;39.07;18.43;;;;;;;;;;5037746;28;20720;-70
2023/01/20 13:27:34;;;;;;;37.37;18.33;;;;;;;;;;5019394;28;20236;-69
2023/01/20 13:30:03;;;;;;;40.60;18.13;;;;;;;;;;5025859;28;20216;-69
2023/01/20 13:32:35;;;;;;;35.47;18.37;;;;;;;;;;5040283;28;20608;-70
2023/01/20 13:35:23;;;;;;;36.30;17.43;;;;;;;;;;5042146;28;20194;-69
2023/01/20 13:38:19;;;;;;;41.93;18.47;;;;;;;;;;5032594;28;20534;-69
2023/01/20 13:40:46;;;;;;;37.40;17.90;;;;;;;;;;5033371;28;20217;-69
2023/01/20 13:43:26;;;;;;;36.97;17.53;;;;;;;;;;5013861;28;20197;-69
2023/01/20 13:46:03;;;;;;;37.97;18.70;;;;;;;;;;5022753;28;20194;-69
2023/01/20 13:48:30;;;;;;;32.30;17.13;;;;;;;;;;5022372;28;20448;-69
2023/01/20 13:51:14;;;;;;;31.40;17.30;;;;;;;;;;5023652;28;20194;-69
2023/01/20 13:53:40;;;;;;;32.23;16.50;;;;;;;;;;5033751;28;20201;-71
2023/01/20 13:56:24;;;;;;;37.20;17.70;;;;;;;;;;5045129;28;20268;-69
2023/01/20 13:58:49;;;;;;;34.63;17.53;;;;;;;;;;5042831;28;20193;-69
2023/01/20 14:01:14;;;;;;;37.30;17.90;;;;;;;;;;5036920;28;20280;-70
2023/01/20 14:03:40;;;;;;;34.33;17.63;;;;;;;;;;5023149;28;20201;-69
2023/01/20 14:06:27;;;;;;;37.93;18.90;;;;;;;;;;5032939;28;20202;-69
2023/01/20 14:08:52;;;;;;;45.80;19.37;;;;;;;;;;5019730;28;20210;-69
2023/01/20 14:11:20;;;;;;;39.53;19.90;;;;;;;;;;5037528;28;20615;-69
2023/01/20 14:14:00;;;;;;;36.93;19.10;;;;;;;;;;5018264;28;20194;-69
2023/01/20 14:16:37;;;;;;;37.03;19.63;;;;;;;;;;5024522;28;20215;-70
2023/01/20 14:19:32;;;;;;;40.60;19.93;;;;;;;;;;5027767;28;20935;-70
2023/01/20 14:22:18;;;;;;;38.03;19.77;;;;;;;;;;5042434;28;20217;-70
2023/01/20 14:24:45;;;;;;;40.97;19.70;;;;;;;;;;5032880;28;20230;-69
2023/01/20 14:27:19;;;;;;;42.57;21.03;;;;;;;;;;5033597;28;20700;-69
2023/01/20 14:29:49;;;;;;;47.37;23.27;;;;;;;;;;5042907;28;20202;-71
2023/01/20 14:32:19;;;;;;;46.43;23.80;;;;;;;;;;5038234;28;20201;-70
2023/01/20 14:34:45;;;;;;;48.33;24.20;;;;;;;;;;5026694;28;20252;-69
2023/01/20 14:37:23;;;;;;;45.27;23.57;;;;;;;;;;5045084;28;20192;-69
2023/01/20 14:39:50;;;;;;;53.03;24.53;;;;;;;;;;5027656;28;20934;-70
2023/01/20 14:42:20;;;;;;;48.20;23.97;;;;;;;;;;5040978;28;20243;-69
2023/01/20 14:44:47;;;;;;;47.47;24.33;;;;;;;;;;5016818;28;20212;-69
2023/01/20 14:47:13;;;;;;;49.10;22.67;;;;;;;;;;5027552;28;20304;-70